Time;durP1;ratioP1;P1;durP2;ratioP2;P2;SDS_P1;SDS_P2;PMS_P1;PMS_P2;Temp;Humidity;BMP_temperature;BMP_pressure;BME280_temperature;BME280_humidity;BME280_pressure;Samples;Min_cycle;Max_cycle;Signal;HPM_P1;HPM_P2
2022/05/19 00:01:30;;;;;;;1.70;0.43;;;11.50;47.40;;;;;;5069826;28;20036;-83
2022/05/19 00:03:55;;;;;;;;;;;11.50;47.00;;;;;;5051766;28;20040;-83
2022/05/19 00:06:21;;;;;;;1.30;0.50;;;11.50;46.70;;;;;;5068379;28;19905;-82
2022/05/19 00:08:46;;;;;;;;;;;11.50;47.00;;;;;;5051411;28;20117;-83
2022/05/19 00:11:15;;;;;;;4.55;0.55;;;11.60;47.00;;;;;;5068426;28;20356;-83
2022/05/19 00:13:40;;;;;;;1.95;0.63;;;11.50;47.30;;;;;;5069364;28;20047;-83
2022/05/19 00:16:06;;;;;;;;;;;11.50;47.00;;;;;;5070256;28;20020;-83
2022/05/19 00:18:33;;;;;;;3.70;0.63;;;11.60;47.30;;;;;;5068690;28;20508;-82
2022/05/19 00:20:59;;;;;;;3.13;0.40;;;11.50;47.60;;;;;;5052187;28;20079;-82
2022/05/19 00:23:24;;;;;;;;;;;11.50;47.80;;;;;;5069997;28;20013;-82
2022/05/19 00:25:50;;;;;;;1.30;0.50;;;11.40;48.00;;;;;;5067994;28;19905;-83
2022/05/19 00:28:16;;;;;;;4.20;0.60;;;11.30;47.90;;;;;;5069049;28;20028;-83
2022/05/19 00:30:41;;;;;;;1.52;0.70;;;11.30;48.20;;;;;;5051813;28;20021;-83
2022/05/19 00:33:08;;;;;;;;;;;11.20;48.20;;;;;;5070202;28;20477;-82
2022/05/19 00:35:36;;;;;;;2.50;0.50;;;11.10;48.30;;;;;;5068385;28;19911;-83
2022/05/19 00:38:01;;;;;;;3.17;0.57;;;11.10;48.50;;;;;;5051720;28;20024;-83
2022/05/19 00:40:27;;;;;;;;;;;11.10;48.30;;;;;;5072923;28;20025;-83
2022/05/19 00:42:53;;;;;;;2.33;0.65;;;11.10;48.60;;;;;;5073172;28;19924;-83
2022/05/19 00:45:26;;;;;;;;;;;11.10;48.80;;;;;;5072581;28;20071;-83
2022/05/19 00:47:58;;;;;;;4.63;0.60;;;11.00;48.80;;;;;;5071915;28;19908;-83
2022/05/19 00:50:33;;;;;;;2.13;0.32;;;11.00;49.00;;;;;;5073169;28;20029;-83
2022/05/19 00:53:06;;;;;;;3.87;0.57;;;11.00;48.40;;;;;;5054612;28;20048;-83
2022/05/19 00:55:38;;;;;;;3.88;0.70;;;11.10;48.50;;;;;;5054532;28;20031;-82
2022/05/19 00:58:11;;;;;;;4.50;0.77;;;11.10;48.60;;;;;;5072604;28;20032;-82
2022/05/19 01:00:37;;;;;;;2.15;0.50;;;11.00;49.20;;;;;;5071287;28;20051;-82
2022/05/19 01:03:02;;;;;;;4.72;0.50;;;11.00;49.30;;;;;;5054854;28;20036;-83
2022/05/19 01:05:37;;;;;;;;;;;11.10;49.00;;;;;;5073506;28;20028;-83
2022/05/19 01:08:23;;;;;;;2.05;0.50;;;11.00;49.60;;;;;;5071299;28;20391;-83
2022/05/19 01:10:50;;;;;;;6.82;0.55;;;11.00;49.70;;;;;;5072882;28;20025;-83
2022/05/19 01:13:16;;;;;;;2.97;0.55;;;11.00;49.70;;;;;;5054642;28;20040;-84
2022/05/19 01:15:48;;;;;;;;;;;10.90;49.50;;;;;;5055052;28;20539;-83
2022/05/19 01:18:15;;;;;;;2.78;0.60;;;10.90;49.40;;;;;;5072060;28;20498;-84
2022/05/19 01:20:42;;;;;;;9.75;0.70;;;10.80;49.90;;;;;;5054550;28;20032;-82
2022/05/19 01:23:39;;;;;;;3.13;0.60;;;10.80;50.10;;;;;;5054080;28;20021;-83
2022/05/19 01:26:39;;;;;;;4.32;0.55;;;10.80;50.20;;;;;;5065542;28;20033;-83
2022/05/19 01:29:04;;;;;;;1.27;0.35;;;10.70;50.60;;;;;;5072282;28;20128;-83
2022/05/19 01:31:35;;;;;;;;;;;10.60;51.30;;;;;;5054261;28;20189;-83
2022/05/19 01:34:02;;;;;;;2.30;0.60;;;10.50;52.30;;;;;;5072109;28;20403;-83
2022/05/19 01:36:28;;;;;;;1.35;0.40;;;10.40;52.70;;;;;;5072236;28;20032;-82
2022/05/19 01:39:06;;;;;;;2.55;0.65;;;10.20;53.60;;;;;;5072129;28;20570;-81
2022/05/19 01:41:43;;;;;;;1.75;0.50;;;10.20;54.40;;;;;;5071911;28;20024;-83
2022/05/19 01:44:12;;;;;;;3.88;1.52;;;10.00;55.30;;;;;;5070527;28;20159;-82
2022/05/19 01:46:40;;;;;;;7.07;0.75;;;9.90;55.40;;;;;;5072106;28;20032;-82
2022/05/19 01:49:17;;;;;;;4.57;1.52;;;9.80;55.50;;;;;;5054001;28;20024;-83
2022/05/19 01:51:47;;;;;;;4.07;0.50;;;9.80;55.80;;;;;;5052842;28;20084;-83
2022/05/19 01:54:28;;;;;;;3.00;0.85;;;9.70;57.20;;;;;;5070420;28;20036;-82
2022/05/19 01:57:10;;;;;;;1.55;0.57;;;9.60;57.40;;;;;;5071625;28;20032;-83
2022/05/19 02:00:03;;;;;;;2.45;0.65;;;9.60;58.30;;;;;;5053681;28;20051;-84
2022/05/19 02:02:48;;;;;;;4.55;0.90;;;9.60;58.80;;;;;;5051949;28;20025;-83
2022/05/19 02:05:59;;;;;;;2.42;0.50;;;9.50;59.10;;;;;;5053001;28;20081;-83
2022/05/19 02:08:31;;;;;;;3.72;0.80;;;9.40;59.60;;;;;;5071225;28;20111;-82
2022/05/19 02:11:01;;;;;;;2.55;0.88;;;9.40;60.40;;;;;;5070126;28;20070;-83
2022/05/19 02:13:30;;;;;;;2.05;0.40;;;9.30;61.10;;;;;;5052951;28;20050;-82
2022/05/19 02:15:58;;;;;;;6.00;0.52;;;9.20;61.60;;;;;;5070540;28;20051;-82
2022/05/19 02:18:25;;;;;;;2.00;0.60;;;9.20;62.50;;;;;;5070767;28;20036;-82
2022/05/19 02:20:53;;;;;;;6.78;1.25;;;9.20;63.20;;;;;;5070740;28;20032;-82
2022/05/19 02:23:19;;;;;;;1.48;0.50;;;9.20;63.70;;;;;;5052957;28;20044;-83
2022/05/19 02:25:50;;;;;;;5.68;0.50;;;9.10;64.60;;;;;;5069490;28;20546;-84
2022/05/19 02:28:37;;;;;;;4.18;0.50;;;9.00;65.30;;;;;;5070811;28;20029;-83
2022/05/19 02:31:03;;;;;;;4.10;0.60;;;9.00;66.30;;;;;;5070793;28;20032;-83
2022/05/19 02:33:29;;;;;;;;;;;8.90;67.10;;;;;;5071401;28;20025;-82
2022/05/19 02:35:55;;;;;;;4.30;0.90;;;8.80;69.20;;;;;;5052968;28;19911;-82
2022/05/19 02:38:21;;;;;;;;;;;8.90;70.00;;;;;;5071090;28;20567;-83
2022/05/19 02:40:47;;;;;;;5.57;1.00;;;8.80;72.30;;;;;;5052867;28;19964;-81
2022/05/19 02:43:14;;;;;;;2.78;1.00;;;8.70;73.70;;;;;;5052645;28;20025;-83
2022/05/19 02:45:40;;;;;;;6.85;1.38;;;8.70;74.60;;;;;;5052400;28;20028;-83
2022/05/19 02:48:08;;;;;;;;;;;8.70;76.20;;;;;;5052999;28;20016;-83
2022/05/19 02:50:34;;;;;;;9.25;1.30;;;8.70;77.50;;;;;;5070361;28;19904;-83
2022/05/19 02:53:00;;;;;;;4.95;1.52;;;8.70;78.20;;;;;;5070121;28;20106;-83
2022/05/19 02:55:26;;;;;;;;;;;8.70;78.60;;;;;;5052965;28;20162;-83
2022/05/19 02:57:52;;;;;;;4.88;1.48;;;8.70;79.70;;;;;;5052102;28;20006;-83
2022/05/19 03:00:19;;;;;;;;;;;8.60;80.90;;;;;;5070506;28;20040;-83
2022/05/19 03:02:45;;;;;;;;;;;8.70;81.30;;;;;;5053833;28;19916;-83
2022/05/19 03:05:14;;;;;;;7.30;0.80;;;8.70;82.00;;;;;;5071470;28;19908;-83
2022/05/19 03:07:40;;;;;;;6.13;1.10;;;8.60;82.90;;;;;;5052673;28;20654;-82
2022/05/19 03:10:07;;;;;;;5.90;1.30;;;8.60;83.40;;;;;;5071211;28;20035;-83
2022/05/19 03:12:33;;;;;;;2.97;0.80;;;8.60;84.00;;;;;;5052879;28;20074;-84
2022/05/19 03:14:59;;;;;;;2.03;0.55;;;8.60;85.70;;;;;;5069537;28;20064;-84
2022/05/19 03:17:25;;;;;;;2.50;0.77;;;8.60;86.80;;;;;;5069755;28;20028;-84
2022/05/19 03:19:54;;;;;;;;;;;8.60;87.00;;;;;;5053300;28;20041;-83
2022/05/19 03:22:20;;;;;;;7.43;0.70;;;8.60;87.40;;;;;;5070553;28;19950;-83
2022/05/19 03:24:46;;;;;;;2.10;0.70;;;8.60;87.60;;;;;;5052295;28;20028;-83
2022/05/19 03:27:12;;;;;;;;;;;8.60;88.30;;;;;;5052798;28;20025;-83
2022/05/19 03:29:37;;;;;;;2.95;0.93;;;8.70;88.50;;;;;;5070624;28;20186;-83
2022/05/19 03:32:04;;;;;;;3.95;0.73;;;8.70;87.90;;;;;;5069335;28;20421;-83
2022/05/19 03:34:29;;;;;;;3.65;1.55;;;8.70;87.70;;;;;;5052233;28;20036;-83
2022/05/19 03:36:55;;;;;;;3.67;0.90;;;8.80;88.50;;;;;;5061181;28;20409;-83
2022/05/19 03:39:21;;;;;;;3.58;0.80;;;8.80;88.40;;;;;;5070145;28;20408;-84
2022/05/19 03:41:47;;;;;;;;;;;8.90;87.40;;;;;;5070455;28;20033;-83
2022/05/19 03:44:13;;;;;;;1.95;0.65;;;8.90;86.60;;;;;;5052702;28;20445;-84
2022/05/19 03:46:39;;;;;;;2.35;0.70;;;9.00;86.70;;;;;;5070528;28;20075;-83
2022/05/19 03:49:05;;;;;;;5.07;0.60;;;9.10;86.00;;;;;;5070376;28;20025;-83
2022/05/19 03:51:32;;;;;;;;;;;9.10;86.20;;;;;;5052956;28;20501;-83
2022/05/19 03:53:58;;;;;;;;;;;9.20;86.10;;;;;;5069556;28;19912;-83
2022/05/19 03:56:25;;;;;;;2.40;0.70;;;9.30;86.10;;;;;;5070264;28;20482;-83
2022/05/19 03:58:51;;;;;;;4.25;0.50;;;9.40;86.30;;;;;;5070485;28;20071;-83
2022/05/19 04:01:17;;;;;;;;;;;9.60;85.90;;;;;;5069384;28;20071;-85
2022/05/19 04:03:43;;;;;;;3.00;0.43;;;9.70;84.90;;;;;;5070096;28;19916;-83
2022/05/19 04:06:09;;;;;;;;;;;9.90;84.20;;;;;;5070446;28;20036;-82
2022/05/19 04:08:34;;;;;;;2.75;0.60;;;10.10;83.80;;;;;;5052190;28;19916;-84
2022/05/19 04:11:00;;;;;;;;;;;10.30;83.40;;;;;;5069428;28;20029;-84
2022/05/19 04:13:26;;;;;;;2.53;0.85;;;10.40;83.40;;;;;;5052503;28;19911;-83
2022/05/19 04:15:52;;;;;;;;;;;10.60;82.00;;;;;;5056174;28;20028;-84
2022/05/19 04:18:17;;;;;;;4.68;1.38;;;10.80;81.70;;;;;;5073611;28;19923;-85
2022/05/19 04:20:43;;;;;;;;;;;11.10;79.70;;;;;;5073503;28;20078;-85
2022/05/19 04:23:10;;;;;;;8.68;1.90;;;11.40;78.10;;;;;;5056147;28;19913;-84
2022/05/19 04:25:36;;;;;;;5.97;2.10;;;11.60;76.90;;;;;;5073548;28;20095;-82
2022/05/19 04:28:03;;;;;;;5.57;2.00;;;11.80;76.30;;;;;;5073280;28;20481;-82
2022/05/19 04:30:28;;;;;;;6.28;1.73;;;11.90;74.60;;;;;;5072106;28;20036;-81
2022/05/19 04:32:54;;;;;;;;;;;12.10;74.70;;;;;;5054950;28;20028;-82
2022/05/19 04:35:20;;;;;;;5.85;1.52;;;12.20;72.70;;;;;;5071639;28;19908;-80
2022/05/19 04:37:46;;;;;;;3.50;1.15;;;12.30;73.10;;;;;;5073690;28;20102;-80
2022/05/19 04:40:14;;;;;;;3.40;0.98;;;12.50;72.40;;;;;;5054729;28;20112;-82
2022/05/19 04:42:40;;;;;;;3.15;0.82;;;12.60;71.60;;;;;;5054756;28;20123;-82
2022/05/19 04:45:07;;;;;;;3.88;1.88;;;12.80;70.50;;;;;;5071692;28;20102;-82
2022/05/19 04:47:33;;;;;;;7.40;0.80;;;12.90;69.90;;;;;;5070390;28;20043;-81
2022/05/19 04:49:58;;;;;;;;;;;13.10;69.50;;;;;;5055289;28;20038;-81
2022/05/19 04:52:24;;;;;;;5.30;0.95;;;13.20;68.70;;;;;;5071305;28;19920;-82
2022/05/19 04:54:50;;;;;;;;;;;13.40;68.60;;;;;;5073260;28;20102;-82
2022/05/19 04:57:16;;;;;;;3.65;0.90;;;13.60;68.30;;;;;;5070980;28;20335;-81
2022/05/19 04:59:42;;;;;;;8.93;1.52;;;13.80;67.00;;;;;;5054397;28;20029;-81
2022/05/19 05:02:10;;;;;;;5.05;1.02;;;14.00;65.30;;;;;;5072393;28;20033;-81
2022/05/19 05:04:37;;;;;;;4.70;1.17;;;14.10;64.50;;;;;;5054141;28;20043;-81
2022/05/19 05:07:03;;;;;;;8.00;1.50;;;14.40;63.40;;;;;;5054038;28;20031;-82
2022/05/19 05:09:29;;;;;;;6.68;2.17;;;14.70;62.30;;;;;;5055908;28;20111;-91
2022/05/19 05:11:55;;;;;;;6.70;1.48;;;15.10;61.50;;;;;;5066529;28;20477;-90
2022/05/19 05:14:21;;;;;;;;;;;15.40;60.20;;;;;;5075458;28;20055;-91
2022/05/19 05:16:51;;;;;;;;;;;15.90;57.30;;;;;;5058534;28;19904;-91
2022/05/19 05:19:19;;;;;;;;;;;16.20;56.00;;;;;;5075194;28;20391;-91
2022/05/19 05:21:48;;;;;;;;;;;16.50;56.10;;;;;;5058311;28;19909;-91
2022/05/19 05:24:14;;;;;;;;;;;16.70;54.10;;;;;;5058202;28;19912;-90
2022/05/19 05:26:39;;;;;;;;;;;17.00;50.30;;;;;;5074657;28;19951;-91
2022/05/19 05:29:05;;;;;;;;;;;17.30;47.70;;;;;;5057689;28;20003;-90
2022/05/19 05:31:31;;;;;;;;;;;17.30;47.20;;;;;;5074328;28;20420;-90
2022/05/19 05:33:56;;;;;;;;;;;17.50;46.80;;;;;;5057698;28;19995;-90
2022/05/19 05:36:22;;;;;;;;;;;17.70;45.00;;;;;;5074158;28;19904;-90
2022/05/19 05:38:47;;;;;;;;;;;17.90;43.40;;;;;;5073681;28;20070;-90
2022/05/19 05:41:13;;;;;;;;;;;18.30;40.10;;;;;;5074155;28;19908;-91
2022/05/19 05:43:40;;;;;;;;;;;18.60;38.50;;;;;;5057719;28;19956;-91
2022/05/19 05:46:09;;;;;;;;;;;18.90;36.20;;;;;;5057650;28;20691;-90
2022/05/19 05:48:36;;;;;;;;;;;19.50;34.70;;;;;;5057463;28;19905;-90
2022/05/19 05:51:06;;;;;;;;;;;20.50;31.00;;;;;;5057939;28;19911;-91
2022/05/19 05:53:31;;;;;;;;;;;21.60;28.80;;;;;;5074044;28;20403;-89
2022/05/19 05:55:57;;;;;;;;;;;22.60;26.40;;;;;;5075356;28;19905;-90
2022/05/19 05:58:23;;;;;;;;;;;23.40;24.30;;;;;;5075434;28;19905;-90
2022/05/19 06:00:48;;;;;;;;;;;24.20;24.10;;;;;;5057312;28;20335;-89
2022/05/19 06:03:14;;;;;;;;;;;24.30;24.20;;;;;;5057170;28;19912;-90
2022/05/19 06:05:39;;;;;;;;;;;24.40;23.50;;;;;;5073155;28;19904;-87
2022/05/19 06:08:05;;;;;;;;;;;25.00;23.30;;;;;;5073419;28;19954;-87
2022/05/19 06:10:30;;;;;;;;;;;25.90;21.00;;;;;;5055652;28;19911;-86
2022/05/19 06:12:56;;;;;;;;;;;26.90;20.60;;;;;;5072037;28;19904;-86
2022/05/19 06:15:22;;;;;;;;;;;27.70;19.70;;;;;;5055770;28;19908;-87
2022/05/19 06:17:47;;;;;;;;;;;28.20;18.20;;;;;;5072178;28;19908;-89
2022/05/19 06:20:15;;;;;;;;;;;28.90;18.10;;;;;;5073163;28;19912;-90
2022/05/19 06:22:42;;;;;;;;;;;29.30;18.00;;;;;;5073247;28;19904;-90
2022/05/19 06:25:09;;;;;;;;;;;29.60;17.20;;;;;;5072724;28;19908;-90
2022/05/19 06:27:35;;;;;;;;;;;29.90;17.10;;;;;;5056299;28;20264;-88
2022/05/19 06:30:00;;;;;;;;;;;30.30;17.20;;;;;;5074292;28;19915;-85
2022/05/19 06:32:28;;;;;;;;;;;30.60;16.20;;;;;;5071956;28;19916;-88
2022/05/19 06:34:54;;;;;;;;;;;30.50;15.90;;;;;;5056032;28;19999;-90
2022/05/19 06:37:19;;;;;;;;;;;30.70;16.40;;;;;;5074292;28;19947;-91
2022/05/19 06:39:45;;;;;;;;;;;30.60;15.90;;;;;;5072943;28;19997;-90
2022/05/19 06:42:14;;;;;;;;;;;30.60;16.80;;;;;;5056950;28;19911;-92
2022/05/19 06:44:41;;;;;;;;;;;30.80;17.40;;;;;;5083934;28;19903;-90
2022/05/19 06:47:13;;;;;;;;;;;30.80;16.80;;;;;;5076368;28;19908;-86
2022/05/19 06:49:43;;;;;;;;;;;31.10;15.40;;;;;;5063337;28;19999;-87
2022/05/19 06:52:16;;;;;;;;;;;31.40;15.80;;;;;;5074219;28;19927;-92
2022/05/19 06:54:45;;;;;;;;;;;31.30;15.80;;;;;;5074563;28;19916;-91
2022/05/19 06:57:10;;;;;;;;;;;31.30;15.70;;;;;;5056616;28;19905;-91
2022/05/19 06:59:36;;;;;;;;;;;31.10;16.10;;;;;;5072783;28;20361;-92
2022/05/19 07:02:02;;;;;;;;;;;31.20;15.80;;;;;;5062426;28;19912;-89
2022/05/19 07:04:28;;;;;;;;;;;31.40;16.20;;;;;;5078400;28;19908;-91
2022/05/19 07:06:53;;;;;;;;;;;31.50;15.00;;;;;;5073402;28;19927;-91
2022/05/19 07:09:19;;;;;;;;;;;31.10;16.10;;;;;;5073753;28;20415;-88
2022/05/19 07:11:44;;;;;;;;;;;31.30;16.30;;;;;;5072183;28;19940;-90
2022/05/19 07:14:10;;;;;;;;;;;30.80;16.40;;;;;;5072131;28;20416;-89
2022/05/19 07:16:36;;;;;;;;;;;30.40;16.40;;;;;;5072552;28;20277;-89
2022/05/19 07:21:46;;;;;;;;;;;30.60;16.60;;;;;;5074529;28;19915;-91
2022/05/19 07:24:14;;;;;;;;;;;31.10;16.80;;;;;;5055765;28;19904;-90
2022/05/19 07:26:41;;;;;;;;;;;31.00;16.60;;;;;;5071783;28;19932;-91
2022/05/19 07:29:07;;;;;;;;;;;30.80;16.70;;;;;;5069954;28;19908;-90
2022/05/19 07:31:32;;;;;;;;;;;30.70;16.70;;;;;;5072250;28;19954;-91
2022/05/19 07:33:58;;;;;;;;;;;30.60;16.50;;;;;;5071674;28;20007;-88
2022/05/19 07:36:23;;;;;;;;;;;30.50;17.10;;;;;;5072956;28;19946;-90
2022/05/19 07:38:49;;;;;;;;;;;30.70;16.40;;;;;;5072107;28;20334;-88
2022/05/19 07:41:15;;;;;;;;;;;30.70;16.60;;;;;;5055368;28;20399;-89
2022/05/19 07:43:41;;;;;;;;;;;30.70;16.50;;;;;;5073042;28;19904;-89
2022/05/19 07:46:08;;;;;;;;;;;30.80;16.90;;;;;;5073069;28;19904;-89
2022/05/19 07:48:35;;;;;;;;;;;30.50;16.40;;;;;;5073170;28;19904;-90
2022/05/19 07:51:02;;;;;;;;;;;30.40;16.10;;;;;;5059383;28;19927;-88
2022/05/19 07:53:27;;;;;;;;;;;30.90;16.70;;;;;;5075296;28;19920;-87
2022/05/19 07:55:53;;;;;;;;;;;31.10;17.00;;;;;;5075940;28;19908;-87
2022/05/19 07:58:19;;;;;;;;;;;30.90;17.00;;;;;;5058427;28;19931;-84
2022/05/19 08:00:46;;;;;;;;;;;31.20;16.30;;;;;;5076795;28;19908;-87
2022/05/19 08:03:12;;;;;;;;;;;31.10;16.50;;;;;;5075852;28;19904;-89
2022/05/19 08:05:38;;;;;;;;;;;31.00;15.80;;;;;;5058953;28;19908;-87
2022/05/19 08:08:04;;;;;;;;;;;31.00;16.50;;;;;;5058880;28;20326;-89
2022/05/19 08:10:29;;;;;;;;;;;30.90;17.00;;;;;;5076710;28;19911;-88
2022/05/19 08:15:41;;;;;;;;;;;31.50;16.40;;;;;;5075819;28;20003;-87
2022/05/19 08:18:12;;;;;;;;;;;31.60;16.30;;;;;;5075488;28;19904;-86
2022/05/19 08:20:39;;;;;;;;;;;31.00;16.60;;;;;;5057699;28;19904;-86
2022/05/19 08:23:06;;;;;;;;;;;30.80;16.20;;;;;;5056789;28;19915;-84
2022/05/19 08:25:31;;;;;;;;;;;30.90;16.80;;;;;;5073109;28;19904;-82
2022/05/19 08:27:57;;;;;;;;;;;31.00;16.90;;;;;;5074435;28;20408;-85
2022/05/19 08:30:23;;;;;;;;;;;31.20;16.60;;;;;;5075746;28;19904;-85
2022/05/19 08:32:49;;;;;;;;;;;31.10;16.20;;;;;;5056726;28;19965;-87
2022/05/19 08:35:14;;;;;;;;;;;31.10;16.80;;;;;;5074930;28;20335;-86
2022/05/19 08:37:40;;;;;;;;;;;31.10;16.30;;;;;;5074356;28;20350;-90
2022/05/19 08:40:06;;;;;;;;;;;31.20;16.40;;;;;;5058075;28;19936;-92
2022/05/19 08:42:34;;;;;;;;;;;31.30;15.70;;;;;;5058773;28;19905;-91
2022/05/19 08:45:02;;;;;;;;;;;31.30;16.30;;;;;;5075059;28;19904;-91
2022/05/19 08:47:29;;;;;;;;;;;31.40;16.50;;;;;;5075705;28;19916;-89
2022/05/19 08:50:01;;;;;;;;;;;31.70;16.80;;;;;;5066371;28;19952;-85
2022/05/19 08:52:29;;;;;;;;;;;32.00;16.30;;;;;;5058638;28;19923;-87
2022/05/19 08:54:56;;;;;;;;;;;31.60;15.90;;;;;;5079711;28;19919;-84
2022/05/19 08:57:40;;;;;;;;;;;31.20;16.10;;;;;;5073563;28;19908;-84
2022/05/19 09:00:24;;;;;;;;;;;31.20;16.00;;;;;;5073972;28;19944;-86
2022/05/19 09:03:05;;;;;;;;;;;30.90;15.90;;;;;;5073455;28;19912;-86
2022/05/19 09:05:51;;;;;;;;;;;31.10;16.30;;;;;;5075439;28;20399;-85
2022/05/19 09:08:16;;;;;;;;;;;31.20;16.00;;;;;;5054612;28;19999;-83
2022/05/19 09:10:45;;;;;;;;;;;31.10;15.70;;;;;;5074657;28;20353;-85
2022/05/19 09:13:10;;;;;;;;;;;31.30;16.50;;;;;;5073222;28;19912;-88
2022/05/19 09:15:36;;;;;;;;;;;31.40;16.10;;;;;;5074479;28;19916;-86
2022/05/19 09:18:02;;;;;;;;;;;31.70;15.70;;;;;;5058087;28;19931;-87
2022/05/19 09:20:40;;;;;;;;;;;31.60;15.20;;;;;;5075202;28;20114;-87
2022/05/19 09:23:05;;;;;;;;;;;31.50;16.30;;;;;;5073630;28;19904;-85
2022/05/19 09:25:33;;;;;;;;;;;31.60;15.90;;;;;;5073034;28;20038;-85
2022/05/19 09:27:59;;;;;;;;;;;31.50;15.60;;;;;;5073683;28;19908;-87
2022/05/19 09:30:36;;;;;;;;;;;31.60;15.70;;;;;;5056769;28;19994;-85
2022/05/19 09:33:06;;;;;;;;;;;31.90;15.70;;;;;;5073051;28;19995;-87
2022/05/19 09:35:36;;;;;;;;;;;32.10;15.20;;;;;;5074739;28;19992;-88
2022/05/19 09:38:05;;;;;;;;;;;31.90;15.90;;;;;;5057750;28;19910;-88
2022/05/19 09:40:34;;;;;;;;;;;32.30;16.50;;;;;;5075775;28;19911;-88
2022/05/19 09:43:06;;;;;;;;;;;32.30;16.30;;;;;;5075526;28;19947;-89
2022/05/19 09:45:41;;;;;;;;;;;32.20;15.70;;;;;;5075521;28;19950;-89
2022/05/19 09:48:08;;;;;;;;;;;32.50;16.00;;;;;;5066883;28;19914;-87
2022/05/19 09:50:51;;;;;;;;;;;32.40;15.50;;;;;;5090232;28;19968;-85
2022/05/19 09:53:27;;;;;;;;;;;32.40;15.70;;;;;;5073195;28;19920;-87
2022/05/19 09:55:56;;;;;;;;;;;32.50;16.00;;;;;;5073951;28;19913;-88
2022/05/19 09:58:24;;;;;;;;;;;32.60;15.90;;;;;;5056889;28;19915;-87
2022/05/19 10:00:51;;;;;;;;;;;32.30;16.00;;;;;;5056564;28;19916;-86
2022/05/19 10:03:37;;;;;;;;;;;31.50;16.40;;;;;;5057325;28;19974;-89
2022/05/19 10:06:08;;;;;;;;;;;30.70;16.30;;;;;;5074305;28;19992;-88
2022/05/19 10:08:41;;;;;;;;;;;30.10;18.00;;;;;;5072901;28;19905;-87
2022/05/19 10:11:13;;;;;;;;;;;29.80;17.90;;;;;;5071892;28;19946;-89
2022/05/19 10:13:46;;;;;;;;;;;29.30;18.40;;;;;;5072102;28;19943;-86
2022/05/19 10:16:12;;;;;;;;;;;28.90;18.60;;;;;;5056479;28;19915;-86
2022/05/19 10:18:56;;;;;;;;;;;28.30;19.10;;;;;;5073612;28;20066;-87
2022/05/19 10:21:41;;;;;;;;;;;28.10;18.00;;;;;;5073584;28;19904;-88
2022/05/19 10:24:07;;;;;;;;;;;27.70;19.40;;;;;;5073240;28;19947;-87
2022/05/19 10:26:45;;;;;;;;;;;27.50;18.90;;;;;;5074247;28;19943;-87
2022/05/19 10:32:13;;;;;;;;;;;27.20;19.80;;;;;;5074525;28;19943;-89
2022/05/19 10:34:48;;;;;;;;;;;27.20;19.40;;;;;;5073278;28;19939;-88
2022/05/19 10:37:27;;;;;;;;;;;26.90;18.80;;;;;;5056153;28;19904;-87
2022/05/19 10:39:56;;;;;;;;;;;26.60;19.70;;;;;;5074198;28;19906;-88
2022/05/19 10:42:27;;;;;;;;;;;26.50;19.30;;;;;;5072793;28;19904;-88
2022/05/19 10:45:11;;;;;;;;;;;26.40;20.40;;;;;;5074109;28;19905;-87
2022/05/19 10:47:51;;;;;;;;;;;26.30;20.10;;;;;;5073361;28;19950;-87
2022/05/19 10:50:25;;;;;;;;;;;26.10;20.30;;;;;;5072001;28;20311;-87
2022/05/19 10:53:09;;;;;;;;;;;26.00;20.10;;;;;;5055886;28;19927;-87
2022/05/19 10:55:35;;;;;;;;;;;26.00;20.50;;;;;;5072703;28;19989;-88
2022/05/19 10:58:05;;;;;;;;;;;26.10;20.20;;;;;;5072583;28;19912;-88
2022/05/19 11:00:30;;;;;;;;;;;26.10;19.90;;;;;;5056301;28;20357;-87
2022/05/19 11:03:14;;;;;;;;;;;26.00;20.10;;;;;;5073540;28;20002;-89
2022/05/19 11:05:40;;;;;;;;;;;26.00;20.70;;;;;;5072398;28;19928;-86
2022/05/19 11:08:17;;;;;;;;;;;25.90;20.00;;;;;;5073049;28;20249;-89
2022/05/19 11:10:57;;;;;;;;;;;25.90;20.60;;;;;;5072237;28;19908;-89
2022/05/19 11:13:35;;;;;;;;;;;25.90;20.70;;;;;;5055890;28;19913;-88
2022/05/19 11:16:19;;;;;;;;;;;26.00;21.20;;;;;;5072498;28;20011;-86
2022/05/19 11:18:56;;;;;;;;;;;26.00;20.10;;;;;;5072299;28;19904;-87
2022/05/19 11:21:30;;;;;;;;;;;25.90;19.70;;;;;;5055707;28;20003;-87
2022/05/19 11:23:59;;;;;;;;;;;25.90;20.30;;;;;;5071581;28;19927;-90
2022/05/19 11:26:27;;;;;;;;;;;25.80;20.10;;;;;;5055830;28;19920;-88
2022/05/19 11:28:56;;;;;;;;;;;26.00;20.70;;;;;;5056108;28;20054;-90
2022/05/19 11:31:35;;;;;;;;;;;26.00;20.40;;;;;;5055477;28;20304;-88
2022/05/19 11:34:06;;;;;;;;;;;26.00;20.20;;;;;;5072288;28;20369;-90
2022/05/19 11:36:31;;;;;;;;;;;26.10;19.80;;;;;;5072358;28;19912;-89
2022/05/19 11:39:14;;;;;;;;;;;26.20;20.70;;;;;;5072817;28;20315;-89
2022/05/19 11:41:40;;;;;;;;;;;26.30;20.50;;;;;;5055076;28;20288;-89
2022/05/19 11:44:10;;;;;;;;;;;26.40;19.90;;;;;;5071742;28;19905;-89
2022/05/19 11:46:42;;;;;;;;;;;26.20;19.10;;;;;;5072196;28;20351;-88
2022/05/19 11:55:13;;;;;;;;;;;26.30;18.50;;;;;;5089307;28;19916;-90
2022/05/19 11:58:00;;;;;;;;;;;26.10;18.70;;;;;;5055054;28;20317;-89
2022/05/19 12:00:30;;;;;;;;;;;26.20;19.10;;;;;;5072197;28;20364;-88
2022/05/19 12:03:06;;;;;;;;;;;26.10;19.40;;;;;;5055406;28;19909;-91
2022/05/19 12:05:50;;;;;;;;;;;26.10;19.00;;;;;;5072020;28;19905;-88
2022/05/19 12:08:16;;;;;;;;;;;26.10;19.50;;;;;;5071955;28;19912;-91
2022/05/19 12:10:43;;;;;;;;;;;26.10;19.90;;;;;;5072418;28;19905;-88
2022/05/19 12:13:10;;;;;;;;;;;26.10;19.80;;;;;;5056167;28;19912;-89
2022/05/19 12:15:38;;;;;;;;;;;26.20;19.80;;;;;;5072972;28;19995;-90
2022/05/19 12:18:10;;;;;;;;;;;26.20;19.00;;;;;;5055710;28;19905;-88
2022/05/19 12:20:38;;;;;;;;;;;26.10;19.60;;;;;;5071897;28;19905;-89
2022/05/19 12:23:24;;;;;;;;;;;26.20;18.90;;;;;;5071873;28;19904;-88
2022/05/19 12:25:52;;;;;;;;;;;26.10;18.60;;;;;;5071791;28;20380;-88
2022/05/19 12:28:17;;;;;;;;;;;26.00;19.10;;;;;;5054927;28;19915;-88
2022/05/19 12:33:48;;;;;;;;;;;26.10;18.70;;;;;;5072977;28;20287;-88
2022/05/19 12:36:17;;;;;;;;;;;26.20;18.80;;;;;;5057023;28;19943;-87
2022/05/19 12:38:44;;;;;;;;;;;26.10;19.60;;;;;;5076626;28;20006;-87
2022/05/19 12:41:31;;;;;;;;;;;26.10;19.90;;;;;;5076471;28;19904;-88
2022/05/19 12:43:58;;;;;;;;;;;26.20;20.40;;;;;;5058149;28;19908;-88
2022/05/19 12:46:33;;;;;;;;;;;26.20;19.90;;;;;;5075183;28;20438;-88
2022/05/19 12:49:19;;;;;;;;;;;26.30;20.60;;;;;;5076777;28;20389;-86
2022/05/19 12:51:47;;;;;;;;;;;26.40;19.80;;;;;;5081713;28;19912;-87
2022/05/19 12:54:13;;;;;;;;;;;26.40;19.70;;;;;;5079434;28;20442;-87
2022/05/19 12:56:40;;;;;;;;;;;26.40;19.20;;;;;;5056881;28;19916;-88
2022/05/19 12:59:07;;;;;;;;;;;26.20;19.10;;;;;;5074656;28;19913;-88
2022/05/19 13:01:34;;;;;;;;;;;26.20;19.10;;;;;;5058045;28;20308;-88
2022/05/19 13:04:02;;;;;;;;;;;26.10;19.80;;;;;;5076191;28;19916;-89
2022/05/19 13:06:29;;;;;;;;;;;26.00;19.90;;;;;;5074835;28;19904;-87
2022/05/19 13:08:55;;;;;;;;;;;26.00;19.80;;;;;;5058194;28;19909;-89
2022/05/19 13:11:29;;;;;;;;;;;26.00;19.20;;;;;;5058135;28;19911;-89
2022/05/19 13:13:57;;;;;;;;;;;26.00;19.20;;;;;;5057730;28;19916;-88
2022/05/19 13:16:28;;;;;;;;;;;26.00;19.20;;;;;;5074379;28;19905;-88
2022/05/19 13:18:55;;;;;;;;;;;26.00;20.20;;;;;;5074720;28;19905;-88
2022/05/19 13:21:24;;;;;;;;;;;26.00;19.70;;;;;;5074669;28;19905;-88
2022/05/19 13:23:49;;;;;;;;;;;26.00;19.60;;;;;;5074305;28;19931;-88
2022/05/19 13:26:25;;;;;;;;;;;26.00;19.40;;;;;;5075641;28;20388;-88
2022/05/19 13:31:50;;;;;;;;;;;26.00;19.50;;;;;;5075937;28;19954;-90
2022/05/19 13:34:17;;;;;;;;;;;26.00;19.60;;;;;;5074297;28;19912;-88
2022/05/19 13:36:50;;;;;;;;;;;26.00;20.00;;;;;;5057622;28;19905;-89
2022/05/19 13:39:16;;;;;;;;;;;26.00;19.60;;;;;;5057853;28;19904;-86
2022/05/19 13:41:50;;;;;;;;;;;26.00;19.30;;;;;;5074160;28;19904;-90
2022/05/19 13:44:42;;;;;;;;;;;25.90;18.60;;;;;;5074201;28;19912;-87
2022/05/19 13:47:19;;;;;;;;;;;25.80;19.50;;;;;;5053277;28;19910;-86
2022/05/19 13:49:48;;;;;;;;;;;25.90;19.50;;;;;;5074626;28;19908;-88
2022/05/19 13:52:14;;;;;;;;;;;25.80;19.50;;;;;;5057140;28;19923;-88
2022/05/19 13:54:42;;;;;;;;;;;25.80;19.10;;;;;;5073655;28;19916;-86
2022/05/19 13:57:10;;;;;;;;;;;25.80;19.80;;;;;;5073629;28;19930;-87
2022/05/19 13:59:37;;;;;;;;;;;25.80;19.40;;;;;;5056440;28;19909;-87
2022/05/19 14:02:07;;;;;;;;;;;25.70;20.00;;;;;;5072523;28;19904;-90
2022/05/19 14:04:37;;;;;;;;;;;25.80;20.40;;;;;;5073876;28;19911;-90
2022/05/19 14:07:03;;;;;;;;;;;25.70;19.40;;;;;;5073885;28;19990;-89
2022/05/19 14:09:48;;;;;;;;;;;25.70;19.80;;;;;;5074773;28;19948;-90
2022/05/19 14:12:13;;;;;;;;;;;25.70;20.60;;;;;;5074975;28;19904;-86
2022/05/19 14:14:46;;;;;;;;;;;25.70;20.20;;;;;;5073760;28;19961;-88
2022/05/19 14:17:12;;;;;;;;;;;25.70;20.40;;;;;;5056737;28;19950;-90
2022/05/19 14:19:39;;;;;;;;;;;25.70;20.30;;;;;;5072828;28;19904;-87
2022/05/19 14:22:05;;;;;;;;;;;25.80;20.40;;;;;;5056270;28;19905;-88
2022/05/19 14:24:30;;;;;;;;;;;25.70;19.90;;;;;;5074113;28;19911;-87